Time;durP1;ratioP1;P1;durP2;ratioP2;P2;SDS_P1;SDS_P2;PMS_P1;PMS_P2;Temp;Humidity;BMP_temperature;BMP_pressure;BME280_temperature;BME280_humidity;BME280_pressure;Samples;Min_cycle;Max_cycle;Signal;HPM_P1;HPM_P2
2023/03/15 00:01:25;;;;;;;1.50;1.50;;;;;;;;;;4929697;28;20206;-52
2023/03/15 00:03:53;;;;;;;1.73;1.70;;;;;;;;;;4935458;28;20195;-53
2023/03/15 00:06:19;;;;;;;1.90;1.80;;;;;;;;;;4930037;28;20540;-52
2023/03/15 00:08:46;;;;;;;1.90;1.80;;;;;;;;;;4929999;28;20199;-52
2023/03/15 00:11:13;;;;;;;1.50;1.50;;;;;;;;;;4917319;28;20191;-52
2023/03/15 00:13:39;;;;;;;1.40;1.40;;;;;;;;;;4940295;28;20302;-52
2023/03/15 00:16:05;;;;;;;1.40;1.40;;;;;;;;;;4940537;28;20190;-52
2023/03/15 00:18:31;;;;;;;1.40;1.40;;;;;;;;;;4938569;28;21487;-52
2023/03/15 00:20:57;;;;;;;1.50;1.50;;;;;;;;;;4929406;28;20191;-53
2023/03/15 00:23:23;;;;;;;1.30;1.30;;;;;;;;;;4949879;28;20283;-53
2023/03/15 00:25:49;;;;;;;1.40;1.40;;;;;;;;;;4954225;28;20268;-52
2023/03/15 00:28:15;;;;;;;1.67;1.67;;;;;;;;;;4953758;28;20703;-52
2023/03/15 00:30:41;;;;;;;1.50;1.50;;;;;;;;;;4947265;28;20549;-52
2023/03/15 00:33:07;;;;;;;1.30;1.30;;;;;;;;;;4952511;28;20215;-51
2023/03/15 00:35:33;;;;;;;1.50;1.50;;;;;;;;;;4953447;28;20184;-53
2023/03/15 00:37:59;;;;;;;1.50;1.50;;;;;;;;;;4940070;28;20535;-53
2023/03/15 00:40:25;;;;;;;1.40;1.40;;;;;;;;;;4938986;28;20683;-52
2023/03/15 00:42:51;;;;;;;1.30;1.30;;;;;;;;;;4937299;28;20195;-53
2023/03/15 00:45:18;;;;;;;1.40;1.40;;;;;;;;;;4932752;28;20199;-58
2023/03/15 00:47:44;;;;;;;1.50;1.50;;;;;;;;;;4947449;28;20198;-53
2023/03/15 00:50:10;;;;;;;1.40;1.40;;;;;;;;;;4948859;28;20191;-52
2023/03/15 00:52:36;;;;;;;1.30;1.30;;;;;;;;;;4939934;28;20764;-53
2023/03/15 00:55:02;;;;;;;1.80;1.73;;;;;;;;;;4942136;28;20188;-53
2023/03/15 00:57:28;;;;;;;1.50;1.50;;;;;;;;;;4945504;28;20191;-53
2023/03/15 00:59:54;;;;;;;1.47;1.47;;;;;;;;;;4941763;28;20194;-52
2023/03/15 01:02:21;;;;;;;1.50;1.50;;;;;;;;;;4943114;28;20257;-53
2023/03/15 01:04:50;;;;;;;1.30;1.30;;;;;;;;;;4944751;28;20199;-53
2023/03/15 01:07:16;;;;;;;1.90;1.80;;;;;;;;;;4903967;29;20212;-52
2023/03/15 01:09:43;;;;;;;1.77;1.70;;;;;;;;;;4904086;28;20210;-53
2023/03/15 01:12:09;;;;;;;1.70;1.70;;;;;;;;;;4906061;29;21153;-52
2023/03/15 01:14:36;;;;;;;1.77;1.70;;;;;;;;;;4904548;29;20185;-52
2023/03/15 01:17:02;;;;;;;1.60;1.60;;;;;;;;;;4904095;28;20180;-53
2023/03/15 01:19:28;;;;;;;1.60;1.60;;;;;;;;;;4893773;29;20652;-53
2023/03/15 01:21:54;;;;;;;2.17;2.07;;;;;;;;;;4897976;29;20185;-52
2023/03/15 01:24:20;;;;;;;1.40;1.40;;;;;;;;;;4895441;29;20215;-52
2023/03/15 01:26:46;;;;;;;1.50;1.50;;;;;;;;;;4895404;29;20643;-53
2023/03/15 01:29:12;;;;;;;1.50;1.50;;;;;;;;;;4901028;29;20648;-52
2023/03/15 01:31:38;;;;;;;1.40;1.40;;;;;;;;;;4911205;29;20668;-53
2023/03/15 01:34:04;;;;;;;1.50;1.50;;;;;;;;;;4910573;29;20240;-52
2023/03/15 01:36:30;;;;;;;1.57;1.57;;;;;;;;;;4914077;29;20203;-53
2023/03/15 01:38:56;;;;;;;1.60;1.60;;;;;;;;;;4911359;29;20196;-54
2023/03/15 01:41:23;;;;;;;1.50;1.50;;;;;;;;;;4912011;29;20743;-52
2023/03/15 01:43:49;;;;;;;1.40;1.40;;;;;;;;;;4896224;29;20739;-53
2023/03/15 01:46:15;;;;;;;1.50;1.50;;;;;;;;;;4897803;29;20544;-52
2023/03/15 01:48:43;;;;;;;1.40;1.40;;;;;;;;;;4892462;29;20272;-52
2023/03/15 01:51:20;;;;;;;1.80;1.70;;;;;;;;;;4899165;29;20272;-53
2023/03/15 01:53:48;;;;;;;1.53;1.53;;;;;;;;;;4895404;29;20224;-53
2023/03/15 01:56:14;;;;;;;1.60;1.60;;;;;;;;;;4908687;29;20555;-52
2023/03/15 01:58:40;;;;;;;1.40;1.40;;;;;;;;;;4899671;29;20243;-53
2023/03/15 02:01:06;;;;;;;1.67;1.67;;;;;;;;;;4897145;29;20627;-52
2023/03/15 02:03:36;;;;;;;1.70;1.70;;;;;;;;;;4904060;29;20196;-56
2023/03/15 02:06:03;;;;;;;2.10;2.00;;;;;;;;;;4906717;28;20247;-53
2023/03/15 02:08:31;;;;;;;1.90;1.80;;;;;;;;;;4915365;28;20196;-52
2023/03/15 02:10:57;;;;;;;1.83;1.73;;;;;;;;;;4919496;28;20199;-52
2023/03/15 02:13:24;;;;;;;1.87;1.77;;;;;;;;;;4913675;28;20220;-53
2023/03/15 02:15:54;;;;;;;1.80;1.70;;;;;;;;;;4920890;28;20211;-52
2023/03/15 02:18:20;;;;;;;1.50;1.50;;;;;;;;;;4915786;28;20189;-52
2023/03/15 02:21:01;;;;;;;1.40;1.40;;;;;;;;;;4917228;28;20246;-52
2023/03/15 02:23:27;;;;;;;1.40;1.40;;;;;;;;;;4911403;28;20195;-52
2023/03/15 02:25:56;;;;;;;1.40;1.40;;;;;;;;;;4926554;28;20192;-52
2023/03/15 02:28:22;;;;;;;1.40;1.40;;;;;;;;;;4915439;28;20195;-53
2023/03/15 02:30:48;;;;;;;1.57;1.57;;;;;;;;;;4907658;28;20310;-52
2023/03/15 02:33:16;;;;;;;1.40;1.40;;;;;;;;;;4913012;28;20258;-52
2023/03/15 02:35:42;;;;;;;1.50;1.50;;;;;;;;;;4911782;28;20266;-53
2023/03/15 02:38:08;;;;;;;1.97;1.87;;;;;;;;;;4915360;28;20708;-53
2023/03/15 02:40:34;;;;;;;1.50;1.50;;;;;;;;;;4913961;28;20774;-53
2023/03/15 02:43:01;;;;;;;1.30;1.30;;;;;;;;;;4919703;28;20651;-52
2023/03/15 02:45:27;;;;;;;1.40;1.40;;;;;;;;;;4933478;28;20200;-53
2023/03/15 02:47:53;;;;;;;1.30;1.30;;;;;;;;;;4913726;28;20188;-53
2023/03/15 02:50:19;;;;;;;1.47;1.47;;;;;;;;;;4914328;28;20183;-53
2023/03/15 02:52:45;;;;;;;1.60;1.60;;;;;;;;;;4937808;28;20211;-52
2023/03/15 02:55:11;;;;;;;1.50;1.50;;;;;;;;;;4933717;28;20192;-52
2023/03/15 02:57:37;;;;;;;1.40;1.40;;;;;;;;;;4929540;28;20696;-52
2023/03/15 03:00:13;;;;;;;1.60;1.60;;;;;;;;;;4915380;28;20310;-53
2023/03/15 03:02:39;;;;;;;1.50;1.50;;;;;;;;;;4934811;28;20191;-52
2023/03/15 03:05:05;;;;;;;1.83;1.73;;;;;;;;;;4939928;28;20688;-52
2023/03/15 03:07:32;;;;;;;1.90;1.80;;;;;;;;;;4957659;28;20191;-51
2023/03/15 03:09:58;;;;;;;1.90;1.80;;;;;;;;;;4948902;28;20206;-52
2023/03/15 03:12:24;;;;;;;2.43;2.33;;;;;;;;;;4943636;28;20222;-52
2023/03/15 03:14:50;;;;;;;1.90;1.80;;;;;;;;;;4938033;28;20191;-52
2023/03/15 03:17:15;;;;;;;1.70;1.70;;;;;;;;;;4941126;28;20215;-52
2023/03/15 03:19:41;;;;;;;1.80;1.70;;;;;;;;;;4937585;28;20186;-53
2023/03/15 03:22:07;;;;;;;1.60;1.60;;;;;;;;;;4940382;28;21162;-53
2023/03/15 03:24:33;;;;;;;2.00;1.90;;;;;;;;;;4942350;28;20198;-52
2023/03/15 03:26:59;;;;;;;2.07;1.97;;;;;;;;;;4930928;28;20397;-52
2023/03/15 03:29:25;;;;;;;1.50;1.50;;;;;;;;;;4932703;28;20206;-53
2023/03/15 03:31:51;;;;;;;1.70;1.70;;;;;;;;;;4934856;28;20248;-52
2023/03/15 03:34:18;;;;;;;1.40;1.40;;;;;;;;;;4915002;28;20187;-52
2023/03/15 03:36:44;;;;;;;1.60;1.60;;;;;;;;;;4932882;28;20572;-52
2023/03/15 03:39:10;;;;;;;1.50;1.50;;;;;;;;;;4939288;28;20195;-52
2023/03/15 03:41:36;;;;;;;1.50;1.50;;;;;;;;;;4935765;28;20668;-52
2023/03/15 03:44:02;;;;;;;1.60;1.60;;;;;;;;;;4938301;28;20195;-52
2023/03/15 03:46:28;;;;;;;1.50;1.50;;;;;;;;;;4934669;28;20191;-52
2023/03/15 03:48:54;;;;;;;1.50;1.50;;;;;;;;;;4933882;28;20190;-52
2023/03/15 03:51:20;;;;;;;1.80;1.70;;;;;;;;;;4921169;28;20199;-52
2023/03/15 03:53:46;;;;;;;1.40;1.40;;;;;;;;;;4951811;28;20261;-52
2023/03/15 03:56:12;;;;;;;1.30;1.30;;;;;;;;;;4940935;28;20211;-53
2023/03/15 03:58:38;;;;;;;1.40;1.40;;;;;;;;;;4950507;28;20270;-52
2023/03/15 04:01:04;;;;;;;1.40;1.40;;;;;;;;;;4950636;28;20183;-53
2023/03/15 04:03:30;;;;;;;1.60;1.60;;;;;;;;;;4953989;28;20290;-52
2023/03/15 04:05:57;;;;;;;1.60;1.60;;;;;;;;;;4953444;28;20417;-52
2023/03/15 04:08:23;;;;;;;1.90;1.80;;;;;;;;;;4934201;28;20648;-53
2023/03/15 04:10:50;;;;;;;1.57;1.57;;;;;;;;;;4951938;28;20508;-53
2023/03/15 04:13:16;;;;;;;1.50;1.50;;;;;;;;;;4954838;28;20622;-52
2023/03/15 04:15:42;;;;;;;1.40;1.40;;;;;;;;;;4954034;28;20198;-52
2023/03/15 04:18:08;;;;;;;1.60;1.60;;;;;;;;;;4942500;28;20202;-52
2023/03/15 04:20:34;;;;;;;1.47;1.47;;;;;;;;;;4923313;28;20304;-52
2023/03/15 04:23:00;;;;;;;1.90;1.80;;;;;;;;;;4940716;28;20192;-53
2023/03/15 04:25:26;;;;;;;2.00;1.90;;;;;;;;;;4940612;28;20199;-53
2023/03/15 04:27:58;;;;;;;1.50;1.50;;;;;;;;;;4939776;28;20340;-54
2023/03/15 04:30:27;;;;;;;1.90;1.80;;;;;;;;;;4937774;28;20873;-54
2023/03/15 04:33:02;;;;;;;2.00;1.90;;;;;;;;;;4944426;28;20855;-54
2023/03/15 04:35:31;;;;;;;1.70;1.70;;;;;;;;;;4936886;28;20430;-55
2023/03/15 04:37:57;;;;;;;1.90;1.80;;;;;;;;;;4941685;28;20571;-55
2023/03/15 04:40:24;;;;;;;1.70;1.70;;;;;;;;;;4935847;28;20670;-56
2023/03/15 04:42:50;;;;;;;1.80;1.70;;;;;;;;;;4941176;28;20541;-55
2023/03/15 04:45:16;;;;;;;1.50;1.50;;;;;;;;;;4931224;28;20291;-55
2023/03/15 04:47:42;;;;;;;1.60;1.60;;;;;;;;;;4938836;28;20199;-55
2023/03/15 04:50:08;;;;;;;1.70;1.70;;;;;;;;;;4938424;28;20643;-55
2023/03/15 04:52:35;;;;;;;1.73;1.70;;;;;;;;;;4943874;28;20223;-56
2023/03/15 04:55:00;;;;;;;1.50;1.50;;;;;;;;;;4940671;28;20845;-55
2023/03/15 04:57:26;;;;;;;1.90;1.80;;;;;;;;;;4940706;28;20725;-55
2023/03/15 04:59:52;;;;;;;1.97;1.87;;;;;;;;;;4940930;28;21252;-55
2023/03/15 05:02:18;;;;;;;1.90;1.80;;;;;;;;;;4940064;28;20227;-55
2023/03/15 05:04:44;;;;;;;2.00;1.90;;;;;;;;;;4937103;28;20206;-55
2023/03/15 05:07:10;;;;;;;2.00;1.90;;;;;;;;;;4938007;28;20304;-55
2023/03/15 05:09:37;;;;;;;1.80;1.70;;;;;;;;;;4936185;28;20293;-55
2023/03/15 05:12:04;;;;;;;1.53;1.53;;;;;;;;;;4935503;28;20626;-55
2023/03/15 05:14:30;;;;;;;1.97;1.87;;;;;;;;;;4942589;28;20199;-56
2023/03/15 05:16:58;;;;;;;1.60;1.60;;;;;;;;;;4941860;28;20184;-55
2023/03/15 05:19:24;;;;;;;1.60;1.60;;;;;;;;;;4947611;28;20195;-55
2023/03/15 05:21:50;;;;;;;1.57;1.57;;;;;;;;;;4935854;28;20221;-55
2023/03/15 05:24:16;;;;;;;1.50;1.50;;;;;;;;;;4930230;28;20198;-55
2023/03/15 05:26:45;;;;;;;1.60;1.60;;;;;;;;;;4928288;28;20213;-55
2023/03/15 05:29:12;;;;;;;1.90;1.80;;;;;;;;;;4931190;28;20326;-55
2023/03/15 05:31:38;;;;;;;1.40;1.40;;;;;;;;;;4930807;28;20246;-55
2023/03/15 05:34:04;;;;;;;1.60;1.60;;;;;;;;;;4935133;28;20694;-55
2023/03/15 05:36:30;;;;;;;1.40;1.40;;;;;;;;;;4932924;28;20215;-55
2023/03/15 05:38:56;;;;;;;1.20;1.20;;;;;;;;;;4929749;28;20187;-55
2023/03/15 05:41:22;;;;;;;1.30;1.30;;;;;;;;;;4929986;28;20576;-54
2023/03/15 05:43:48;;;;;;;1.50;1.50;;;;;;;;;;4934989;28;20224;-54
2023/03/15 05:46:14;;;;;;;1.57;1.57;;;;;;;;;;4927778;28;20227;-54
2023/03/15 05:48:40;;;;;;;1.90;1.80;;;;;;;;;;4938152;28;20228;-55
2023/03/15 05:51:06;;;;;;;1.60;1.60;;;;;;;;;;4940995;28;20191;-54
2023/03/15 05:53:32;;;;;;;1.93;1.83;;;;;;;;;;4932725;28;20207;-54
2023/03/15 05:55:58;;;;;;;1.93;1.83;;;;;;;;;;4940664;28;20753;-54
2023/03/15 05:58:24;;;;;;;2.00;1.90;;;;;;;;;;4930698;28;24242;-54
2023/03/15 06:00:50;;;;;;;2.10;2.00;;;;;;;;;;4931862;28;20937;-54
2023/03/15 06:03:16;;;;;;;1.90;1.80;;;;;;;;;;4936210;28;20198;-54
2023/03/15 06:05:42;;;;;;;2.10;2.00;;;;;;;;;;4927885;28;20242;-57
2023/03/15 06:08:08;;;;;;;2.00;1.90;;;;;;;;;;4934731;28;20920;-54
2023/03/15 06:10:34;;;;;;;1.93;1.83;;;;;;;;;;4936904;28;20208;-54
2023/03/15 06:13:00;;;;;;;1.50;1.50;;;;;;;;;;4922613;28;20515;-54
2023/03/15 06:15:26;;;;;;;1.40;1.40;;;;;;;;;;4932321;28;20230;-54
2023/03/15 06:17:52;;;;;;;1.40;1.40;;;;;;;;;;4932359;28;21806;-54
2023/03/15 06:20:18;;;;;;;1.40;1.40;;;;;;;;;;4928733;28;20188;-53
2023/03/15 06:22:44;;;;;;;1.30;1.30;;;;;;;;;;4938352;28;20273;-52
2023/03/15 06:25:10;;;;;;;1.40;1.40;;;;;;;;;;4929956;28;20223;-54
2023/03/15 06:27:36;;;;;;;1.30;1.30;;;;;;;;;;4939055;28;20719;-54
2023/03/15 06:30:02;;;;;;;1.20;1.20;;;;;;;;;;4937540;28;20900;-53
2023/03/15 06:32:28;;;;;;;1.40;1.40;;;;;;;;;;4925610;28;20276;-53
2023/03/15 06:34:54;;;;;;;1.23;1.23;;;;;;;;;;4940189;28;20266;-52
2023/03/15 06:37:20;;;;;;;1.70;1.70;;;;;;;;;;4932015;28;20187;-52
2023/03/15 06:39:46;;;;;;;1.23;1.23;;;;;;;;;;4941791;28;20274;-52
2023/03/15 06:42:12;;;;;;;1.50;1.50;;;;;;;;;;4944926;28;20191;-52
2023/03/15 06:44:39;;;;;;;1.40;1.40;;;;;;;;;;4943986;28;20288;-53
2023/03/15 06:47:05;;;;;;;1.37;1.37;;;;;;;;;;4944058;28;20179;-52
2023/03/15 06:49:31;;;;;;;1.40;1.40;;;;;;;;;;4941370;28;20195;-52
2023/03/15 06:51:57;;;;;;;1.40;1.40;;;;;;;;;;4941946;28;20732;-53
2023/03/15 06:54:23;;;;;;;1.40;1.40;;;;;;;;;;4940162;28;21872;-52
2023/03/15 06:56:49;;;;;;;1.40;1.40;;;;;;;;;;4941560;28;20182;-52
2023/03/15 06:59:15;;;;;;;1.47;1.47;;;;;;;;;;4941616;28;20207;-53
2023/03/15 07:01:41;;;;;;;1.60;1.60;;;;;;;;;;4943334;28;20191;-52
2023/03/15 07:04:08;;;;;;;1.60;1.60;;;;;;;;;;4940798;28;20203;-52
2023/03/15 07:06:34;;;;;;;1.40;1.40;;;;;;;;;;4942368;28;20262;-52
2023/03/15 07:09:00;;;;;;;1.50;1.50;;;;;;;;;;4945320;28;20229;-52
2023/03/15 07:11:26;;;;;;;1.60;1.60;;;;;;;;;;4942342;28;20639;-52
2023/03/15 07:13:52;;;;;;;1.60;1.60;;;;;;;;;;4947155;28;20214;-52
2023/03/15 07:16:18;;;;;;;1.53;1.53;;;;;;;;;;4947491;28;20194;-53
2023/03/15 07:18:44;;;;;;;1.40;1.40;;;;;;;;;;4948919;28;20191;-53
2023/03/15 07:21:10;;;;;;;1.50;1.50;;;;;;;;;;4947413;28;20191;-53
2023/03/15 07:23:36;;;;;;;1.30;1.30;;;;;;;;;;4947331;28;20205;-52
2023/03/15 07:26:01;;;;;;;1.90;1.80;;;;;;;;;;4948984;28;20607;-52
2023/03/15 07:28:28;;;;;;;1.40;1.40;;;;;;;;;;4949982;28;20679;-52
2023/03/15 07:30:54;;;;;;;1.63;1.63;;;;;;;;;;4950355;28;20285;-53
2023/03/15 07:33:21;;;;;;;1.93;1.83;;;;;;;;;;4951986;28;20229;-51
2023/03/15 07:35:47;;;;;;;1.50;1.50;;;;;;;;;;4948394;28;20187;-53
2023/03/15 07:38:13;;;;;;;1.50;1.50;;;;;;;;;;4954772;28;20241;-52
2023/03/15 07:40:39;;;;;;;1.40;1.40;;;;;;;;;;4963951;28;20182;-52
2023/03/15 07:43:05;;;;;;;1.40;1.40;;;;;;;;;;4958605;28;20195;-53
2023/03/15 07:45:32;;;;;;;1.50;1.50;;;;;;;;;;4964164;28;20202;-53
2023/03/15 07:47:59;;;;;;;1.50;1.50;;;;;;;;;;4962494;28;20249;-52
2023/03/15 07:50:25;;;;;;;1.30;1.30;;;;;;;;;;4947393;28;20198;-52
2023/03/15 07:52:51;;;;;;;1.33;1.33;;;;;;;;;;4955595;28;20753;-52
2023/03/15 07:55:17;;;;;;;1.40;1.40;;;;;;;;;;4952971;28;20229;-53
2023/03/15 07:57:43;;;;;;;1.73;1.70;;;;;;;;;;4953191;28;20639;-52
2023/03/15 08:00:11;;;;;;;1.20;1.20;;;;;;;;;;4950944;28;20600;-52
2023/03/15 08:02:37;;;;;;;1.30;1.30;;;;;;;;;;4962155;28;20218;-52
2023/03/15 08:05:03;;;;;;;1.73;1.70;;;;;;;;;;4932165;28;20195;-52
2023/03/15 08:07:29;;;;;;;1.10;1.10;;;;;;;;;;4951843;28;20367;-52
2023/03/15 08:09:56;;;;;;;1.30;1.30;;;;;;;;;;4953401;28;20206;-52
2023/03/15 08:12:23;;;;;;;1.30;1.30;;;;;;;;;;4947294;28;20213;-52
2023/03/15 08:14:50;;;;;;;1.40;1.40;;;;;;;;;;4948637;28;20253;-52
2023/03/15 08:17:16;;;;;;;1.40;1.40;;;;;;;;;;4947166;28;20179;-53
2023/03/15 08:19:42;;;;;;;1.50;1.50;;;;;;;;;;4949939;28;20527;-52
2023/03/15 08:22:08;;;;;;;1.40;1.40;;;;;;;;;;4952223;28;20198;-53
2023/03/15 08:24:34;;;;;;;1.30;1.30;;;;;;;;;;4952960;28;21622;-52
2023/03/15 08:27:00;;;;;;;1.50;1.50;;;;;;;;;;4925676;28;20192;-52
2023/03/15 08:29:26;;;;;;;1.40;1.40;;;;;;;;;;4951411;28;20191;-52
2023/03/15 08:31:52;;;;;;;1.20;1.20;;;;;;;;;;4942739;28;20195;-52
2023/03/15 08:34:18;;;;;;;1.00;1.00;;;;;;;;;;4946332;28;20223;-53
2023/03/15 08:36:45;;;;;;;0.97;0.97;;;;;;;;;;4947437;28;20625;-53
2023/03/15 08:39:11;;;;;;;0.90;0.90;;;;;;;;;;4931863;28;20680;-53
2023/03/15 08:41:37;;;;;;;0.80;0.80;;;;;;;;;;4956068;28;20195;-53
2023/03/15 08:44:03;;;;;;;0.80;0.80;;;;;;;;;;4961270;28;20198;-53
2023/03/15 08:46:29;;;;;;;0.83;0.83;;;;;;;;;;4953868;28;20195;-52
2023/03/15 08:48:55;;;;;;;0.90;0.90;;;;;;;;;;4948295;28;20637;-52
2023/03/15 08:51:24;;;;;;;0.80;0.80;;;;;;;;;;4946757;28;20191;-52
2023/03/15 08:53:50;;;;;;;0.80;0.80;;;;;;;;;;4960156;28;20251;-52
2023/03/15 08:56:16;;;;;;;0.80;0.80;;;;;;;;;;4957472;28;20198;-52
2023/03/15 08:58:42;;;;;;;0.90;0.90;;;;;;;;;;4959636;28;20672;-52
2023/03/15 09:01:10;;;;;;;1.00;1.00;;;;;;;;;;4944508;28;20188;-52
2023/03/15 09:03:36;;;;;;;1.10;1.10;;;;;;;;;;4940432;28;21019;-52
2023/03/15 09:06:02;;;;;;;1.10;1.10;;;;;;;;;;4945935;28;20751;-53
2023/03/15 09:08:28;;;;;;;1.00;1.00;;;;;;;;;;4929832;28;20250;-55
2023/03/15 09:10:57;;;;;;;0.80;0.80;;;;;;;;;;4946528;28;20214;-51
2023/03/15 09:13:23;;;;;;;0.90;0.90;;;;;;;;;;4947217;28;20261;-53
2023/03/15 09:15:50;;;;;;;0.93;0.93;;;;;;;;;;4941675;28;20869;-53
2023/03/15 09:18:16;;;;;;;0.90;0.90;;;;;;;;;;4945329;28;20755;-53
2023/03/15 09:20:42;;;;;;;0.80;0.80;;;;;;;;;;4940524;28;20246;-53
2023/03/15 09:23:08;;;;;;;0.90;0.90;;;;;;;;;;4945759;28;20655;-53
2023/03/15 09:25:37;;;;;;;2.20;2.10;;;;;;;;;;4943751;28;20690;-53
2023/03/15 09:28:04;;;;;;;1.20;1.20;;;;;;;;;;4947312;28;20195;-53
2023/03/15 09:30:30;;;;;;;1.13;1.13;;;;;;;;;;4941251;28;20195;-53
2023/03/15 09:32:55;;;;;;;1.40;1.40;;;;;;;;;;4946461;28;20879;-54
2023/03/15 09:35:22;;;;;;;1.00;1.00;;;;;;;;;;4942999;28;20617;-54
2023/03/15 09:37:48;;;;;;;1.00;1.00;;;;;;;;;;4947743;28;20223;-53
2023/03/15 09:40:14;;;;;;;1.00;1.00;;;;;;;;;;4942566;28;21079;-53
2023/03/15 09:42:55;;;;;;;1.00;1.00;;;;;;;;;;4943368;28;20195;-53
2023/03/15 09:45:27;;;;;;;0.80;0.80;;;;;;;;;;4942744;28;20700;-53
2023/03/15 09:48:11;;;;;;;0.90;0.90;;;;;;;;;;4951481;28;20188;-53
2023/03/15 09:50:41;;;;;;;0.80;0.80;;;;;;;;;;4954801;28;20355;-53
2023/03/15 09:53:22;;;;;;;0.70;0.70;;;;;;;;;;4946032;28;20211;-53
2023/03/15 09:55:48;;;;;;;0.80;0.80;;;;;;;;;;4950576;28;20195;-52
2023/03/15 09:58:19;;;;;;;0.70;0.70;;;;;;;;;;4948788;28;20538;-52
2023/03/15 10:00:46;;;;;;;0.70;0.70;;;;;;;;;;4940852;28;20191;-53
2023/03/15 10:03:15;;;;;;;1.00;1.00;;;;;;;;;;4929231;28;20206;-53
2023/03/15 10:05:42;;;;;;;0.90;0.90;;;;;;;;;;4957528;28;20243;-53
2023/03/15 10:08:11;;;;;;;0.70;0.70;;;;;;;;;;4936514;28;21553;-53
2023/03/15 10:10:39;;;;;;;0.80;0.80;;;;;;;;;;4944710;28;20210;-53
2023/03/15 10:13:21;;;;;;;0.90;0.90;;;;;;;;;;4929662;28;20311;-53
2023/03/15 10:15:53;;;;;;;0.90;0.90;;;;;;;;;;4942230;28;20195;-52
2023/03/15 10:18:41;;;;;;;1.00;1.00;;;;;;;;;;4948442;28;20768;-53
2023/03/15 10:21:11;;;;;;;1.10;1.10;;;;;;;;;;4928047;28;20728;-53
2023/03/15 10:23:44;;;;;;;0.77;0.77;;;;;;;;;;4930526;28;20229;-53
2023/03/15 10:26:11;;;;;;;1.20;1.20;;;;;;;;;;4941195;28;20801;-53
2023/03/15 10:28:37;;;;;;;1.10;1.10;;;;;;;;;;4929492;28;20203;-52
2023/03/15 10:31:09;;;;;;;0.70;0.70;;;;;;;;;;4928308;28;20249;-53
2023/03/15 10:33:36;;;;;;;0.97;0.97;;;;;;;;;;4943374;28;20214;-53
2023/03/15 10:36:03;;;;;;;0.70;0.70;;;;;;;;;;4929011;28;20608;-53
2023/03/15 10:38:29;;;;;;;0.70;0.70;;;;;;;;;;4925783;28;20738;-53
2023/03/15 10:40:58;;;;;;;0.70;0.70;;;;;;;;;;4940752;28;20186;-52
2023/03/15 10:43:33;;;;;;;0.77;0.77;;;;;;;;;;4927645;28;20290;-53
2023/03/15 10:46:12;;;;;;;0.70;0.70;;;;;;;;;;4943260;28;20212;-53
2023/03/15 10:48:59;;;;;;;0.70;0.70;;;;;;;;;;4944696;28;20194;-52
2023/03/15 10:51:32;;;;;;;0.70;0.70;;;;;;;;;;4946385;28;20207;-52
2023/03/15 10:53:58;;;;;;;0.70;0.70;;;;;;;;;;4944165;28;20218;-53
2023/03/15 10:56:25;;;;;;;0.60;0.60;;;;;;;;;;4931423;28;20281;-53
2023/03/15 10:58:52;;;;;;;0.70;0.70;;;;;;;;;;4955685;28;20194;-53
2023/03/15 11:01:28;;;;;;;1.10;1.10;;;;;;;;;;4950975;28;20187;-53
2023/03/15 11:04:01;;;;;;;1.00;1.00;;;;;;;;;;4946118;28;20206;-53
2023/03/15 11:06:27;;;;;;;1.00;1.00;;;;;;;;;;4951112;28;20238;-52
2023/03/15 11:08:53;;;;;;;1.20;1.20;;;;;;;;;;4959393;28;21048;-52
2023/03/15 11:11:20;;;;;;;1.10;1.10;;;;;;;;;;4945160;28;20883;-53
2023/03/15 11:13:54;;;;;;;0.80;0.80;;;;;;;;;;4943072;28;20221;-53
2023/03/15 11:16:20;;;;;;;0.80;0.80;;;;;;;;;;4944222;28;20191;-52
2023/03/15 11:18:49;;;;;;;0.80;0.80;;;;;;;;;;4948640;28;20198;-53
2023/03/15 11:21:15;;;;;;;0.80;0.80;;;;;;;;;;4925461;28;20852;-54
2023/03/15 11:23:42;;;;;;;0.60;0.60;;;;;;;;;;4952648;28;20600;-53
2023/03/15 11:26:10;;;;;;;0.70;0.70;;;;;;;;;;4960840;28;20198;-53
2023/03/15 11:28:36;;;;;;;1.00;1.00;;;;;;;;;;4946284;28;20245;-54
2023/03/15 11:31:03;;;;;;;1.23;1.23;;;;;;;;;;4941790;28;20574;-53
2023/03/15 11:33:37;;;;;;;1.20;1.20;;;;;;;;;;4938634;28;20215;-52
2023/03/15 11:36:03;;;;;;;1.20;1.20;;;;;;;;;;4941626;28;20190;-53
2023/03/15 11:38:33;;;;;;;1.20;1.20;;;;;;;;;;4923773;28;20198;-53
2023/03/15 11:40:59;;;;;;;1.00;1.00;;;;;;;;;;4928527;28;20278;-53
2023/03/15 11:43:27;;;;;;;1.10;1.10;;;;;;;;;;4944861;28;20831;-53
2023/03/15 11:45:54;;;;;;;1.05;1.05;;;;;;;;;;4940491;28;20209;-53
2023/03/15 11:48:23;;;;;;;0.90;0.90;;;;;;;;;;4937972;28;20259;-53
2023/03/15 11:50:52;;;;;;;0.80;0.80;;;;;;;;;;4937049;28;21040;-54
2023/03/15 11:53:18;;;;;;;0.70;0.70;;;;;;;;;;4942689;28;20207;-53
2023/03/15 11:55:47;;;;;;;1.00;1.00;;;;;;;;;;4942217;28;20703;-52
2023/03/15 11:58:26;;;;;;;0.80;0.80;;;;;;;;;;4942346;28;20186;-53
2023/03/15 12:00:53;;;;;;;1.10;1.10;;;;;;;;;;4941486;28;20679;-53
2023/03/15 12:03:29;;;;;;;0.70;0.70;;;;;;;;;;4931569;28;20199;-53
2023/03/15 12:06:03;;;;;;;0.70;0.70;;;;;;;;;;4944060;28;20235;-53
2023/03/15 12:08:35;;;;;;;1.10;1.10;;;;;;;;;;4940393;28;20275;-53
2023/03/15 12:11:01;;;;;;;0.60;0.60;;;;;;;;;;4951377;28;20207;-52
2023/03/15 12:13:30;;;;;;;0.60;0.60;;;;;;;;;;4946660;28;20303;-53
2023/03/15 12:15:57;;;;;;;0.70;0.70;;;;;;;;;;4948249;28;20195;-53
2023/03/15 12:18:27;;;;;;;0.65;0.65;;;;;;;;;;4956266;28;20201;-53
2023/03/15 12:20:57;;;;;;;0.65;0.65;;;;;;;;;;4951148;28;20664;-54
2023/03/15 12:23:31;;;;;;;1.00;1.00;;;;;;;;;;4955758;28;20273;-53
2023/03/15 12:25:58;;;;;;;1.00;1.00;;;;;;;;;;4951143;28;20535;-53
2023/03/15 12:28:27;;;;;;;1.10;1.10;;;;;;;;;;4949544;28;20191;-53
2023/03/15 12:30:58;;;;;;;1.00;1.00;;;;;;;;;;4950621;28;20664;-52
2023/03/15 12:33:24;;;;;;;1.00;1.00;;;;;;;;;;4961624;28;20242;-53
2023/03/15 12:35:50;;;;;;;1.00;1.00;;;;;;;;;;4956926;28;20191;-52
2023/03/15 12:38:17;;;;;;;1.08;1.08;;;;;;;;;;4931866;28;20388;-53
2023/03/15 12:40:56;;;;;;;0.93;0.93;;;;;;;;;;4925332;28;20191;-52
2023/03/15 12:43:35;;;;;;;1.00;1.00;;;;;;;;;;4927117;28;20286;-53
2023/03/15 12:46:01;;;;;;;1.00;1.00;;;;;;;;;;4937716;28;21129;-52
2023/03/15 12:48:27;;;;;;;0.90;0.90;;;;;;;;;;4944605;28;20617;-52
2023/03/15 12:50:54;;;;;;;1.00;1.00;;;;;;;;;;4945468;28;20194;-52
2023/03/15 12:53:26;;;;;;;1.00;1.00;;;;;;;;;;4946907;28;20305;-52
2023/03/15 12:55:52;;;;;;;1.00;1.00;;;;;;;;;;4944323;28;20658;-52
2023/03/15 12:58:19;;;;;;;0.90;0.90;;;;;;;;;;4945570;28;20188;-52
2023/03/15 13:00:45;;;;;;;1.00;1.00;;;;;;;;;;4927036;28;22013;-53
2023/03/15 13:03:15;;;;;;;1.00;1.00;;;;;;;;;;4950246;28;20194;-53
2023/03/15 13:06:00;;;;;;;1.10;1.10;;;;;;;;;;4924766;28;20718;-53
2023/03/15 13:08:30;;;;;;;1.00;1.00;;;;;;;;;;4947853;28;20206;-55
2023/03/15 13:10:58;;;;;;;1.00;1.00;;;;;;;;;;4944648;28;20192;-52
2023/03/15 13:13:30;;;;;;;1.00;1.00;;;;;;;;;;4944070;28;20790;-53
2023/03/15 13:16:15;;;;;;;0.90;0.90;;;;;;;;;;4931049;28;20641;-53
2023/03/15 13:18:45;;;;;;;1.00;1.00;;;;;;;;;;4943279;28;20553;-54
2023/03/15 13:21:13;;;;;;;1.00;1.00;;;;;;;;;;4955678;28;20191;-53
2023/03/15 13:23:41;;;;;;;0.90;0.90;;;;;;;;;;4925066;28;20222;-52
2023/03/15 13:26:19;;;;;;;1.00;1.00;;;;;;;;;;4926850;28;20187;-52
2023/03/15 13:28:57;;;;;;;1.00;1.00;;;;;;;;;;4946113;28;20198;-53
2023/03/15 13:31:24;;;;;;;1.00;1.00;;;;;;;;;;4951930;28;20253;-52
2023/03/15 13:33:51;;;;;;;1.00;1.00;;;;;;;;;;4936591;28;20294;-52
2023/03/15 13:36:19;;;;;;;1.10;1.10;;;;;;;;;;4956779;28;20180;-52
2023/03/15 13:38:46;;;;;;;1.00;1.00;;;;;;;;;;4945656;28;20502;-52
2023/03/15 13:41:19;;;;;;;1.00;1.00;;;;;;;;;;4941452;28;20195;-53
2023/03/15 13:43:45;;;;;;;0.95;0.95;;;;;;;;;;4951256;28;20230;-52
2023/03/15 13:46:11;;;;;;;1.00;1.00;;;;;;;;;;4957224;28;20192;-53
2023/03/15 13:48:40;;;;;;;1.00;1.00;;;;;;;;;;4950462;28;20561;-54
2023/03/15 13:51:07;;;;;;;1.80;1.70;;;;;;;;;;4946009;28;20607;-52
2023/03/15 13:53:34;;;;;;;1.90;1.80;;;;;;;;;;4928854;28;20210;-52
2023/03/15 13:56:00;;;;;;;2.03;1.92;;;;;;;;;;4944276;28;20218;-54
2023/03/15 13:58:26;;;;;;;2.20;2.10;;;;;;;;;;4941192;28;20274;-54
2023/03/15 14:00:58;;;;;;;2.15;2.05;;;;;;;;;;4930578;28;20328;-53
2023/03/15 14:03:24;;;;;;;2.40;2.30;;;;;;;;;;4947233;28;20238;-53
2023/03/15 14:05:51;;;;;;;2.00;1.90;;;;;;;;;;4944155;28;20853;-52
2023/03/15 14:08:17;;;;;;;1.90;1.80;;;;;;;;;;4936775;28;20545;-53
2023/03/15 14:10:43;;;;;;;1.95;1.85;;;;;;;;;;4925894;28;20191;-53
2023/03/15 14:13:24;;;;;;;1.80;1.70;;;;;;;;;;4938333;28;20214;-53
2023/03/15 14:15:50;;;;;;;1.80;1.70;;;;;;;;;;4934767;28;20735;-53
2023/03/15 14:18:17;;;;;;;1.70;1.70;;;;;;;;;;4937218;28;20552;-53
2023/03/15 14:20:46;;;;;;;1.50;1.50;;;;;;;;;;4943319;28;20663;-53
2023/03/15 14:23:14;;;;;;;1.10;1.10;;;;;;;;;;4935712;28;20203;-54
2023/03/15 14:25:40;;;;;;;1.00;1.00;;;;;;;;;;4943104;28;20717;-53
2023/03/15 14:28:06;;;;;;;0.73;0.73;;;;;;;;;;4945020;28;20277;-53
2023/03/15 14:30:33;;;;;;;1.30;1.30;;;;;;;;;;4928872;28;20202;-53
2023/03/15 14:33:00;;;;;;;1.40;1.40;;;;;;;;;;4950920;28;20222;-53
2023/03/15 14:35:53;;;;;;;1.40;1.40;;;;;;;;;;4932825;28;20198;-53
2023/03/15 14:38:22;;;;;;;1.60;1.60;;;;;;;;;;4950653;28;20759;-53
2023/03/15 14:40:48;;;;;;;1.60;1.60;;;;;;;;;;4942620;28;20179;-53
2023/03/15 14:43:14;;;;;;;1.30;1.30;;;;;;;;;;4930287;28;20197;-53
2023/03/15 14:45:41;;;;;;;1.30;1.30;;;;;;;;;;4948471;28;20199;-54